Chronik & Geschichte

Boeing Stearman am Flugplatz Konstanz

Mit seiner 107-jährigen Geschichte ist Konstanz der älteste Verkehrslandeplatz Deutschlands. Lesen Sie unsere Festschrift zum 100-jährigen Platzjubiläum oder entdecken Sie die ausführliche Flugplatzchronik auf der Website der Initiative PRO Flugplatz Konstanz.

Live am Platz

Die Bilder unserer Webcams werden alle 5 Minuten aktualisiert.

Sonnenaufgang:

06:58 UTC / 07:58 Lokal

Sonnenuntergang:

16:12 UTC / 17:12 Lokal

METAR (23.01.2021 17:20 UTC):

EDNY 231720Z AUTO 36004KT 320V030 9999 // BKN075/// OVC100/// 02/M01 Q0994
VFR

TAF (23.01.2021 11:00 UTC):

TAF EDNY 231100Z 2312/2412 VRB03KT 9999 FEW050 PROB30 TEMPO 2315/2324 4000 -SNRA BECMG 2320/2322 25005KT BECMG 2400/2403 25010KT TEMPO 2400/2408 25015G25KT 3000 SHSN BKN012TCU

Alle Angaben unverbindlich und ohne Gewähr. Zeiten genähert.

Für den Verkehrslandeplatz Konstanz werden keine offiziellen Wetterinformationen ausgegeben. Daher werden zur Orientierung Daten des nahegelegenen Flughafens Friedrichshafen dargestellt.